Time;durP1;ratioP1;P1;durP2;ratioP2;P2;SDS_P1;SDS_P2;PMS_P1;PMS_P2;Temp;Humidity;BMP_temperature;BMP_pressure;BME280_temperature;BME280_humidity;BME280_pressure;Samples;Min_cycle;Max_cycle;Signal;HPM_P1;HPM_P2
2022/05/30 00:01:23;;;;;;;12.85;8.05;;;;;;;11.30;72.92;98396.42;4192694;83;21118;-85
2022/05/30 00:07:27;;;;;;;18.25;9.78;;;;;;;11.35;75.48;98372.73;4151391;84;21066;-83
2022/05/30 00:13:40;;;;;;;17.23;9.80;;;;;;;11.16;74.78;98370.41;4150721;84;21061;-84
2022/05/30 00:20:08;;;;;;;13.22;8.15;;;;;;;11.08;74.69;98374.33;4167386;82;21115;-83
2022/05/30 00:26:26;;;;;;;;;;;;;;;11.12;74.74;98387.42;4053422;85;21020;-83
2022/05/30 00:32:43;;;;;;;13.55;9.48;;;;;;;11.00;75.57;98383.72;4246524;82;20171;-84
2022/05/30 00:38:45;;;;;;;14.35;9.10;;;;;;;10.94;75.40;98374.34;4256131;81;21630;-85
2022/05/30 00:44:57;;;;;;;14.43;9.05;;;;;;;10.96;76.00;98376.87;4161537;82;21070;-83
2022/05/30 00:51:08;;;;;;;14.20;8.15;;;;;;;10.96;76.19;98365.16;4162623;84;21039;-84
2022/05/30 00:57:21;;;;;;;21.00;11.22;;;;;;;11.01;76.77;98364.73;4087723;85;22021;-83
2022/05/30 01:10:18;;;;;;;17.65;9.90;;;;;;;10.98;77.14;98356.73;4217702;84;21480;-84
2022/05/30 01:16:53;;;;;;;12.58;9.18;;;;;;;10.95;77.65;98351.25;4154545;84;21024;-84
2022/05/30 01:23:04;;;;;;;12.68;8.85;;;;;;;10.97;78.04;98338.75;4191169;83;20987;-84
2022/05/30 01:36:00;;;;;;;20.97;10.20;;;;;;;11.00;78.67;98331.11;4179769;83;21588;-84
2022/05/30 01:42:22;;;;;;;17.82;10.72;;;;;;;10.98;79.04;98327.19;4187032;84;21076;-84
2022/05/30 01:48:34;;;;;;;17.67;10.93;;;;;;;10.91;79.20;98318.41;4239619;82;21069;-84
2022/05/30 01:54:55;;;;;;;16.48;11.40;;;;;;;10.92;79.76;98317.80;4203981;82;21594;-84
2022/05/30 02:08:26;;;;;;;14.93;11.70;;;;;;;10.92;81.00;98324.66;4224904;83;20171;-84
2022/05/30 02:14:27;;;;;;;19.75;10.78;;;;;;;10.89;80.39;98322.13;4134387;84;21090;-83
2022/05/30 02:20:41;;;;;;;18.10;11.75;;;;;;;10.88;80.78;98323.28;4209008;83;21588;-83
2022/05/30 02:26:57;;;;;;;22.98;13.30;;;;;;;10.89;81.06;98326.81;4219489;83;21594;-84
2022/05/30 02:39:31;;;;;;;22.22;13.93;;;;;;;10.86;81.50;98333.08;4210199;83;21021;-83
2022/05/30 02:45:56;;;;;;;20.72;13.80;;;;;;;10.83;81.70;98321.54;3960666;87;37126;-84
2022/05/30 02:52:19;;;;;;;20.65;14.20;;;;;;;10.78;81.77;98336.98;3995779;87;22000;-84
2022/05/30 02:58:28;;;;;;;20.23;14.40;;;;;;;10.77;82.12;98334.06;4021527;87;21080;-84
2022/05/30 03:04:39;;;;;;;17.70;13.25;;;;;;;10.76;82.38;98337.95;4030769;87;21583;-85
2022/05/30 03:10:48;;;;;;;18.48;13.83;;;;;;;10.74;82.71;98339.72;4027064;86;21810;-83
2022/05/30 03:17:35;;;;;;;19.62;13.00;;;;;;;10.74;82.87;98354.02;4059852;87;21221;-83
2022/05/30 03:24:01;;;;;;;18.55;13.72;;;;;;;10.72;82.86;98343.45;4162550;84;21000;-83
2022/05/30 03:30:08;;;;;;;19.52;13.38;;;;;;;10.74;83.18;98358.11;4209941;84;21896;-84
2022/05/30 03:36:30;;;;;;;18.17;13.05;;;;;;;10.76;83.23;98359.85;4147836;84;21060;-84
2022/05/30 03:43:32;;;;;;;21.12;14.55;;;;;;;10.80;83.51;98369.66;4128911;84;21469;-84
2022/05/30 03:49:52;;;;;;;17.05;14.18;;;;;;;10.81;83.76;98365.73;4200388;83;21011;-84
2022/05/30 03:56:04;;;;;;;19.82;14.15;;;;;;;10.83;83.82;98368.88;4107454;83;21104;-84
2022/05/30 04:02:27;;;;;;;19.90;14.00;;;;;;;10.84;83.99;98366.33;4096930;85;21006;-83
2022/05/30 04:08:40;;;;;;;19.10;14.15;;;;;;;10.87;84.06;98364.17;4109003;85;21100;-84
2022/05/30 04:15:03;;;;;;;16.90;13.72;;;;;;;10.86;84.18;98370.03;4102027;85;21065;-84
2022/05/30 04:21:23;;;;;;;21.60;13.03;;;;;;;10.85;84.30;98373.35;4091107;85;21411;-83
2022/05/30 04:27:32;;;;;;;19.65;12.53;;;;;;;10.85;84.40;98366.51;4132528;84;21001;-83
2022/05/30 04:33:46;;;;;;;17.40;13.03;;;;;;;10.91;84.55;98357.33;4176856;84;21060;-84
2022/05/30 04:40:12;;;;;;;22.20;14.30;;;;;;;10.98;84.74;98353.20;4098480;85;21537;-85
2022/05/30 04:46:35;;;;;;;17.48;13.65;;;;;;;11.07;84.79;98361.83;4206674;84;21163;-84
2022/05/30 04:52:57;;;;;;;19.17;14.18;;;;;;;11.05;84.63;98366.33;4143069;84;21024;-82
2022/05/30 04:59:09;;;;;;;18.48;13.32;;;;;;;11.04;84.79;98367.48;4187379;84;21052;-83
2022/05/30 05:05:39;;;;;;;21.62;14.20;;;;;;;11.04;84.99;98368.06;4035506;88;21033;-84
2022/05/30 05:11:43;;;;;;;22.20;13.38;;;;;;;11.06;84.95;98368.45;4153473;84;21032;-84
2022/05/30 05:18:34;;;;;;;21.62;14.03;;;;;;;11.09;85.20;98364.35;4132191;84;21087;-84
2022/05/30 05:24:48;;;;;;;19.67;12.80;;;;;;;11.21;85.31;98376.87;4124669;85;21042;-83
2022/05/30 05:31:18;;;;;;;18.25;12.18;;;;;;;11.20;85.01;98373.16;4151486;85;21029;-83
2022/05/30 05:37:21;;;;;;;15.98;11.75;;;;;;;11.23;85.37;98387.44;4148853;85;21608;-84
2022/05/30 05:43:32;;;;;;;19.80;11.68;;;;;;;11.30;85.65;98388.78;4110516;85;21042;-83
2022/05/30 05:49:42;;;;;;;21.23;15.05;;;;;;;11.38;85.64;98385.65;4115597;85;21631;-84
2022/05/30 05:55:48;;;;;;;24.57;14.15;;;;;;;11.43;85.17;98397.59;4093474;85;21100;-83
2022/05/30 06:01:50;;;;;;;20.90;13.25;;;;;;;11.43;85.41;98407.75;4042271;87;21090;-83
2022/05/30 06:08:01;;;;;;;22.90;12.58;;;;;;;11.32;85.28;98417.38;4023953;87;21088;-84
2022/05/30 06:14:34;;;;;;;21.05;12.80;;;;;;;11.22;85.38;98426.95;4085867;85;21064;-83
2022/05/30 06:21:03;;;;;;;17.80;11.53;;;;;;;11.16;85.33;98421.67;4121647;86;21005;-84
2022/05/30 06:33:53;;;;;;;17.30;13.80;;;;;;;11.28;85.81;98424.80;4033890;87;21033;-84
2022/05/30 06:40:03;;;;;;;17.15;11.03;;;;;;;11.28;85.45;98437.70;4028809;87;21057;-84
2022/05/30 06:46:22;;;;;;;12.68;10.00;;;;;;;11.27;85.61;98432.04;4085520;86;21068;-84
2022/05/30 06:52:40;;;;;;;14.50;9.18;;;;;;;11.26;85.57;98435.36;4028661;85;21056;-83
2022/05/30 06:59:12;;;;;;;17.32;10.15;;;;;;;11.34;86.03;98439.66;4045663;85;21585;-83
2022/05/30 07:05:42;;;;;;;13.85;10.38;;;;;;;11.37;85.75;98454.55;3997434;88;21059;-84
2022/05/30 07:11:58;;;;;;;14.30;11.20;;;;;;;11.36;85.94;98460.61;4000047;87;21688;-84
2022/05/30 07:18:15;;;;;;;11.95;8.18;;;;;;;11.30;85.92;98470.41;4123787;84;21109;-83
2022/05/30 07:24:29;;;;;;;10.48;7.37;;;;;;;11.30;86.06;98474.52;4136980;84;21113;-84
2022/05/30 07:31:03;;;;;;;17.23;8.13;;;;;;;11.50;86.36;98476.25;4041741;85;21041;-84
2022/05/30 07:37:55;;;;;;;9.18;6.08;;;;;;;11.77;86.61;98482.33;4104907;85;21127;-84
2022/05/30 07:44:12;;;;;;;12.05;6.00;;;;;;;12.21;86.15;98488.09;4110919;85;21009;-84
2022/05/30 07:50:39;;;;;;;7.12;5.90;;;;;;;12.66;85.55;98483.57;4170326;85;21437;-84
2022/05/30 07:56:54;;;;;;;10.40;6.17;;;;;;;13.11;85.08;98487.27;4141082;84;21064;-84
2022/05/30 08:02:58;;;;;;;10.48;7.05;;;;;;;13.45;84.62;98492.29;4111535;85;21037;-84
2022/05/30 08:09:05;;;;;;;9.58;5.72;;;;;;;13.67;84.20;98488.17;4151112;85;21088;-83
2022/05/30 08:15:09;;;;;;;9.38;5.37;;;;;;;13.76;83.61;98494.77;4158213;84;21645;-85
2022/05/30 08:21:41;;;;;;;7.92;5.30;;;;;;;13.79;83.15;98516.53;3914822;89;21131;-85
2022/05/30 08:27:53;;;;;;;6.95;4.60;;;;;;;13.77;82.67;98514.78;3958987;88;21608;-84
2022/05/30 08:33:55;;;;;;;7.78;4.50;;;;;;;13.86;82.64;98517.83;3929780;88;21056;-88
2022/05/30 08:47:35;;;;;;;6.10;3.35;;;;;;;14.07;81.38;98539.65;3799206;88;21156;-85
2022/05/30 09:00:55;;;;;;;6.87;2.33;;;;;;;14.99;80.22;98540.73;4160617;83;21049;-84
2022/05/30 09:07:31;;;;;;;6.95;2.85;;;;;;;14.94;79.16;98543.98;4109938;85;21431;-84
2022/05/30 09:13:51;;;;;;;10.72;2.85;;;;;;;14.71;79.17;98538.35;4067158;86;21586;-85
2022/05/30 09:20:16;;;;;;;5.50;2.35;;;;;;;15.31;78.76;98541.86;4041351;87;21041;-85
2022/05/30 09:33:33;;;;;;;7.20;3.22;;;;;;;15.62;76.12;98548.89;4074064;85;21570;-85
2022/05/30 09:40:19;;;;;;;4.72;2.65;;;;;;;16.02;75.89;98553.16;3969513;87;25010;-85
2022/05/30 09:47:06;;;;;;;2.85;2.02;;;;;;;17.17;74.67;98562.51;4105058;85;21020;-85
2022/05/30 09:54:00;;;;;;;7.58;2.27;;;;;;;17.45;72.10;98568.81;4101210;85;21108;-87
2022/05/30 10:00:38;;;;;;;3.27;2.27;;;;;;;16.99;72.23;98567.03;4123885;84;21164;-86
2022/05/30 10:07:24;;;;;;;8.05;2.75;;;;;;;16.46;71.73;98574.23;3869687;89;21188;-85
2022/05/30 10:48:22;;;;;;;2.72;0.95;;;;;;;19.13;66.15;98555.84;3810498;90;21206;-86
2022/05/30 10:54:52;;;;;;;1.87;1.00;;;;;;;19.87;64.99;98557.09;3911721;89;21070;-86
2022/05/30 11:09:12;;;;;;;5.30;2.00;;;;;;;21.13;62.57;98556.78;3922150;88;21104;-85
2022/05/30 11:15:57;;;;;;;7.45;1.70;;;;;;;22.00;59.63;98567.66;3984286;87;21051;-87
2022/05/30 11:30:04;;;;;;;6.03;2.00;;;;;;;22.61;57.95;98565.45;3946425;89;21101;-88
2022/05/30 11:51:54;;;;;;;3.67;2.15;;;;;;;20.94;53.43;98576.59;3950989;89;21093;-84
2022/05/30 11:58:13;;;;;;;;;;;;;;;19.86;53.62;98577.73;3903882;89;21100;-86
2022/05/30 12:04:50;;;;;;;5.35;2.00;;;;;;;19.13;52.20;98584.37;4074586;82;20148;-86
2022/05/30 12:24:53;;;;;;;3.45;1.77;;;;;;;19.27;53.19;98576.22;3988760;87;21578;-86
2022/05/30 12:44:55;;;;;;;5.22;2.25;;;;;;;19.23;52.25;98574.94;3918366;87;21054;-86
2022/05/30 12:57:53;;;;;;;4.33;2.02;;;;;;;19.24;51.87;98558.48;3958792;88;21002;-85
2022/05/30 13:10:55;;;;;;;3.72;2.50;;;;;;;19.04;52.09;98552.95;4043801;86;21564;-85
2022/05/30 13:24:45;;;;;;;2.58;1.87;;;;;;;19.07;51.70;98542.36;4060909;86;21134;-85
2022/05/30 13:37:41;;;;;;;7.80;2.67;;;;;;;18.92;51.10;98553.72;4136611;85;21964;-85
2022/05/30 13:44:15;;;;;;;5.08;2.37;;;;;;;18.85;52.08;98565.00;4148706;85;21011;-85
2022/05/30 13:50:43;;;;;;;3.25;2.17;;;;;;;18.87;51.37;98561.95;4075504;87;21464;-86
2022/05/30 13:57:09;;;;;;;4.00;2.10;;;;;;;19.03;51.95;98568.81;4099870;84;21587;-85
2022/05/30 14:04:10;;;;;;;3.75;2.58;;;;;;;18.91;51.24;98572.94;4159804;84;21135;-85
2022/05/30 14:10:27;;;;;;;5.17;2.20;;;;;;;18.93;51.54;98567.14;4140730;83;21044;-86
2022/05/30 14:16:58;;;;;;;5.80;2.87;;;;;;;19.13;51.55;98574.66;4049541;85;21033;-86
2022/05/30 14:23:10;;;;;;;3.65;2.15;;;;;;;19.34;51.25;98574.67;4036375;86;22379;-86
2022/05/30 14:57:26;;;;;;;5.17;2.27;;;;;;;19.13;51.28;98573.28;3986548;87;21038;-86
2022/05/30 15:10:33;;;;;;;3.35;1.80;;;;;;;19.23;51.30;98581.12;4050770;84;21106;-84
2022/05/30 15:16:36;;;;;;;3.75;2.00;;;;;;;19.05;51.34;98578.86;4185395;84;21036;-85
2022/05/30 15:23:02;;;;;;;3.75;1.98;;;;;;;19.00;51.51;98585.55;4133496;84;21011;-86
2022/05/30 15:29:08;;;;;;;2.90;1.92;;;;;;;18.80;51.29;98585.73;4111791;85;21112;-87
2022/05/30 15:35:28;;;;;;;4.30;2.70;;;;;;;18.57;50.92;98592.30;4133426;84;21513;-86
2022/05/30 15:41:58;;;;;;;3.55;2.17;;;;;;;18.47;51.68;98596.15;4138770;84;21036;-86
2022/05/30 15:48:31;;;;;;;3.05;2.12;;;;;;;18.31;51.20;98602.28;4080950;84;21045;-85
2022/05/30 16:01:36;;;;;;;5.35;2.70;;;;;;;18.05;51.53;98618.59;4074697;86;22585;-86
2022/05/30 16:07:52;;;;;;;3.72;2.22;;;;;;;17.92;51.58;98610.80;4095997;84;21058;-85
2022/05/30 16:27:31;;;;;;;5.05;2.30;;;;;;;17.83;51.94;98636.33;4154420;84;21017;-84
2022/05/30 16:33:40;;;;;;;4.15;2.33;;;;;;;17.81;52.39;98641.52;4211086;84;21079;-86
2022/05/30 16:52:57;;;;;;;3.15;2.25;;;;;;;17.63;51.92;98648.67;4147624;84;21029;-84
2022/05/30 16:58:59;;;;;;;3.67;1.90;;;;;;;17.51;51.81;98651.48;4163042;84;21036;-84
2022/05/30 17:05:04;;;;;;;2.20;1.90;;;;;;;17.39;51.57;98655.48;4142819;84;21056;-84
2022/05/30 17:18:19;;;;;;;5.35;2.12;;;;;;;17.12;51.76;98661.98;4137172;84;21946;-85
2022/05/30 17:45:14;;;;;;;2.58;1.95;;;;;;;16.84;52.38;98686.03;4075715;87;20988;-84
2022/05/30 18:04:45;;;;;;;5.12;2.52;;;;;;;16.43;53.63;98706.88;4127633;86;21738;-84
2022/05/30 18:39:05;;;;;;;7.33;2.80;;;;;;;15.43;54.02;98726.70;4133067;84;22000;-84
2022/05/30 18:45:58;;;;;;;7.95;3.42;;;;;;;15.11;54.88;98733.17;4102948;84;20984;-84
2022/05/30 18:52:07;;;;;;;4.67;2.90;;;;;;;14.82;55.10;98762.98;4119180;85;21058;-84
2022/05/30 19:05:36;;;;;;;4.47;3.27;;;;;;;14.12;56.13;98787.73;4205053;83;20978;-84
2022/05/30 19:18:58;;;;;;;12.85;6.10;;;;;;;13.57;58.00;98810.80;4163337;83;21025;-84
2022/05/30 19:52:01;;;;;;;23.40;12.18;;;;;;;12.28;61.69;98848.95;3971406;87;21208;-83
2022/05/30 20:04:54;;;;;;;13.15;9.48;;;;;;;12.00;63.82;98856.33;3950674;88;21103;-83
2022/05/30 20:11:04;;;;;;;14.28;9.03;;;;;;;11.92;64.19;98864.33;3965710;88;21155;-83
2022/05/30 20:23:50;;;;;;;18.23;11.33;;;;;;;11.67;64.94;98878.52;4087565;86;21033;-83
2022/05/30 20:30:17;;;;;;;16.15;11.10;;;;;;;11.57;65.10;98869.06;4101075;86;21589;-83
2022/05/30 20:37:25;;;;;;;20.85;11.78;;;;;;;11.45;66.39;98868.61;3989302;87;22229;-83
2022/05/30 20:43:27;;;;;;;19.32;11.03;;;;;;;11.28;66.77;98881.59;3995632;88;21488;-84
2022/05/30 20:49:48;;;;;;;16.80;9.53;;;;;;;11.13;67.48;98891.70;3981425;88;21173;-83
2022/05/30 20:56:04;;;;;;;18.70;9.53;;;;;;;11.06;68.45;98897.11;3996471;88;21160;-84
2022/05/30 21:02:07;;;;;;;19.45;10.53;;;;;;;11.15;69.07;98899.53;3996718;88;21045;-83
2022/05/30 21:08:08;;;;;;;17.98;10.50;;;;;;;11.04;69.14;98918.60;4082442;86;21097;-85
2022/05/30 21:14:36;;;;;;;18.87;10.08;;;;;;;10.93;69.46;98929.48;4027448;87;21691;-83
2022/05/30 21:20:59;;;;;;;15.50;9.73;;;;;;;10.86;70.39;98925.33;4005936;87;21100;-84
2022/05/30 21:27:04;;;;;;;18.55;10.78;;;;;;;10.70;69.93;98937.67;4174110;84;21104;-83
2022/05/30 21:33:44;;;;;;;11.55;8.20;;;;;;;10.64;70.62;98944.09;4186304;84;21068;-83
2022/05/30 21:39:52;;;;;;;13.20;9.00;;;;;;;10.41;70.87;98946.20;4178679;84;21032;-83
2022/05/30 21:46:09;;;;;;;13.15;8.95;;;;;;;10.30;71.83;98951.34;4158323;84;21013;-83
2022/05/30 21:58:38;;;;;;;19.57;11.38;;;;;;;10.27;73.11;98950.15;4176718;84;21071;-82
2022/05/30 22:04:45;;;;;;;13.78;8.30;;;;;;;10.23;72.25;98964.92;4191858;84;21606;-83
2022/05/30 22:11:05;;;;;;;23.43;10.10;;;;;;;10.14;73.80;98967.16;4180978;84;21012;-83
2022/05/30 22:17:24;;;;;;;20.62;11.28;;;;;;;10.22;74.15;98977.03;4189590;84;21293;-83
2022/05/30 22:30:44;;;;;;;24.93;13.30;;;;;;;10.31;74.69;98978.89;3972687;88;21316;-83
2022/05/30 22:36:51;;;;;;;22.80;12.10;;;;;;;10.23;74.51;98975.86;3964277;88;21432;-83
2022/05/30 22:43:04;;;;;;;18.48;11.45;;;;;;;10.06;74.45;98970.36;3975929;88;21032;-83
2022/05/30 22:56:18;;;;;;;19.52;11.45;;;;;;;10.03;76.17;98983.42;3912104;90;21101;-83
2022/05/30 23:02:52;;;;;;;21.82;12.43;;;;;;;10.16;76.37;98979.89;4050350;84;21029;-83
2022/05/30 23:09:06;;;;;;;19.60;11.45;;;;;;;10.24;76.23;98985.66;4186261;84;21548;-83
2022/05/30 23:15:31;;;;;;;17.32;11.63;;;;;;;10.05;75.64;98981.67;4155906;84;21557;-83
2022/05/30 23:21:53;;;;;;;21.82;12.35;;;;;;;9.85;75.92;98977.51;4129927;83;21056;-83
2022/05/30 23:34:27;;;;;;;17.85;9.60;;;;;;;9.40;77.06;98997.53;4174588;84;21101;-83
2022/05/30 23:54:13;;;;;;;20.88;13.25;;;;;;;9.61;78.68;99038.06;4153504;84;21130;-83
